Saturday, September 22, 2018, 11:10 PM EDT
Back to Local

KPHL, Philadelphia International Airpt

Location: Philadelphia, PA, United States Lat: 39.867
Local Time: 11:10 PM EDT ( 3:10 GMT) Lon: -75.233
Time Zone: US/Eastern Elev: 19 ft

Show me the last for .
Show Decoded

2018-09-22 22:54 METAR KPHL 230254Z 05005KT 10SM FEW045 BKN150 BKN250 17/12 A3020 RMK AO2 SLP227
                 T01720117 50009 $ =
2018-09-22 21:54 METAR KPHL 230154Z VRB03KT 10SM SCT050 BKN100 19/11 A3020 RMK AO2 SLP227
                 T01890111 $ =
2018-09-22 20:54 METAR KPHL 230054Z 02005KT 10SM OVC110 18/11 A3019 RMK AO2 SLP224 T01830106 $ =
2018-09-22 19:54 METAR KPHL 222354Z 03008KT 10SM FEW075 BKN110 19/11 A3018 RMK AO2 SLP217 60000
                 T01890106 10250 20183 50003 $ =
2018-09-22 18:54 METAR KPHL 222254Z 01009G21KT 10SM FEW075 BKN100 BKN250 19/11 A3018 RMK AO2
                 RAB2159E08 SLP221 P0000 T01890106 $ =
2018-09-22 17:54 METAR KPHL 222154Z 01010KT 10SM SCT040 BKN110 BKN250 19/10 A3018 RMK AO2 SLP218
                 T01890100 $ =
2018-09-22 16:54 METAR KPHL 222054Z 35011KT 10SM SCT040 BKN130 BKN250 19/10 A3017 RMK AO2 SLP214
                 T01940100 53012 $ =
2018-09-22 15:54 METAR KPHL 221954Z 36012KT 10SM FEW040 BKN130 OVC160 21/10 A3015 RMK AO2 SLP209
                 T02060100 $ =
2018-09-22 14:54 METAR KPHL 221854Z 34014G21KT 10SM FEW040 BKN130 BKN160 22/11 A3014 RMK AO2
                 SLP206 T02220106 $ =
2018-09-22 13:54 METAR KPHL 221754Z 36011KT 10SM FEW040 BKN150 24/12 A3013 RMK AO2 SLP203
                 T02390117 10256 20222 50002 $ =
2018-09-22 12:54 METAR KPHL 221654Z 35012KT 10SM FEW035 BKN200 24/12 A3014 RMK AO2 SLP204
                 T02390117 $ =
2018-09-22 11:54 METAR KPHL 221554Z 34012G15KT 10SM FEW032 FEW080 BKN200 23/12 A3013 RMK AO2
                 SLP201 T02280122 $ =
2018-09-22 11:44 METAR KPHL 221544Z 35008KT 10SM FEW032 FEW080 BKN200 23/13 A3012 RMK AO2
                 T02330128 $ =
2018-09-22 10:54 METAR KPHL 221454Z 03014KT 10SM FEW031 FEW080 BKN200 23/14 A3012 RMK AO2 SLP200
                 T02280139 51021 $ =
2018-09-22 09:54 METAR KPHL 221354Z 34015KT 10SM FEW025 SCT080 BKN190 23/15 A3011 RMK AO2 SLP194
                 T02330150 $ =
2018-09-22 08:54 METAR KPHL 221254Z 35012G19KT 10SM SCT018 BKN080 BKN180 23/19 A3008 RMK AO2
                 SLP186 T02280194 $ =
2018-09-22 07:54 METAR KPHL 221154Z 31007KT 10SM FEW015 SCT075 SCT120 BKN170 BKN210 23/21 A3006
                 RMK AO2 SLP179 60001 70001 T02280211 10233 20222 53022 $ =
2018-09-22 06:54 METAR KPHL 221054Z 25007KT 9SM FEW065 SCT090 BKN110 BKN160 BKN210 22/21 A3003
                 RMK AO2 SLP170 T02220211 $ =
2018-09-22 05:54 METAR KPHL 220954Z 24005KT 10SM FEW025 OVC090 22/21 A3002 RMK AO2 RAB07E49
                 SLP165 P0001 T02220211 $ =
2018-09-22 05:28 METAR KPHL 220928Z 24007KT 7SM -RA SCT016 SCT025 OVC090 22/21 A3001 RMK AO2
                 RAB07 P0000 T02220211 $ =
2018-09-22 04:54 METAR KPHL 220854Z 22006KT 10SM SCT016 OVC025 23/21 A3000 RMK AO2 SLP157 60000
                 T02280206 51006 $ =
2018-09-22 04:47 METAR KPHL 220847Z 23006KT 10SM SCT016 BKN025 OVC110 23/21 A3000 RMK AO2 CIG 015
                 W T02280206 $ =
2018-09-22 03:54 METAR KPHL 220754Z 22009KT 10SM OVC015 23/21 A2999 RMK AO2 RAB40E51 SLP154 P0000
                 T02280206 $ =
2018-09-22 02:54 METAR KPHL 220654Z 22010KT 10SM OVC017 22/21 A3000 RMK AO2 WSHFT 0607 SLP157
                 T02220206 $ =
2018-09-22 02:34 METAR KPHL 220634Z 24010KT 10SM OVC018 22/21 A3001 RMK AO2 WSHFT 0607 T02220206
                 $ =
2018-09-22 02:23 METAR KPHL 220623Z 26011KT 10SM SCT016 BKN021 BKN150 22/21 A3001 RMK AO2 WSHFT
                 0607 T02220206 $ =
2018-09-22 01:54 METAR KPHL 220554Z 20015G20KT 10SM SCT024 BKN150 22/20 A2998 RMK AO2 SLP152
                 T02220200 10233 20222 58021 $ =
2018-09-22 00:54 METAR KPHL 220454Z 20012KT 10SM OVC030 23/20 A3001 RMK AO2 SLP162 T02280200
                 402440189 $ =
2018-09-21 23:54 METAR KPHL 220354Z 20010KT 10SM OVC031 23/19 A3002 RMK AO2 SLP166 T02280194 $ =

Support USWX by starting your Amazon purchase here.